Terminal Aerodrome Forecast
Issued by NWS

Home | Current Version | Previous Version | Text Only | Print | Product List | Glossary On
Versions: 1 2 3 4 5 6 7 8 9 10 11 12 13 14 15
502
FTUS44 KTSA 280520
TAFXNA
TAF
KXNA 280520Z 2806/2906 14010KT P6SM BKN100
      TEMPO 2806/2810 5SM -SHRA BKN040
     FM281300 17010KT P6SM BKN020
     FM290100 12004KT P6SM BKN025 PROB30 2901/2906 3SM TSRA BR
      BKN020CB=

USA.gov is the U.S. government's official web portal to all federal, state and local government web resources and services.